Terminal Aerodrome Forecast
Issued by NWS

Home | Current Version | Previous Version | Graphics & Text | Print | Product List | Glossary On
Versions: 1 2 3 4 5 6 7 8 9 10 11 12 13 14 15
000
FTUS43 KBIS 151100
TAFJMS
TAF
KJMS 151120Z 1512/1612 18020G28KT P6SM SKC WS018/18050KT
     FM151500 17027G37KT P6SM SKC
     FM160000 18020G28KT P6SM SCT150
     FM160300 17012KT P6SM SCT050
     FM160700 18007KT P6SM BKN035 OVC050=

USA.gov is the U.S. government's official web portal to all federal, state and local government web resources and services.